createdAt,value
2018-03-02T00:00:23.715Z,19.70
2018-03-02T00:02:51.388Z,21.53
2018-03-02T00:05:18.962Z,21.57
2018-03-02T00:07:46.916Z,22.00
2018-03-02T00:10:15.266Z,20.93
2018-03-02T00:12:47.602Z,24.87
2018-03-02T00:15:15.872Z,21.90
2018-03-02T00:17:43.393Z,22.50
2018-03-02T00:20:10.960Z,21.03
2018-03-02T00:22:38.921Z,22.83
2018-03-02T00:38:11.565Z,20.67
2018-03-02T00:40:39.866Z,23.83
2018-03-02T00:43:08.274Z,25.70
2018-03-02T00:45:38.773Z,26.33
2018-03-02T00:48:06.334Z,25.13
2018-03-02T00:50:34.952Z,27.57
2018-03-02T00:53:06.222Z,27.47
2018-03-02T00:55:33.769Z,22.70
2018-03-02T00:58:02.056Z,25.17
2018-03-02T01:00:30.027Z,23.47
2018-03-02T01:02:57.559Z,28.27
2018-03-02T01:05:25.114Z,22.80
2018-03-02T01:07:52.636Z,23.57
2018-03-02T01:10:21.411Z,24.27
2018-03-02T01:12:51.003Z,24.47
2018-03-02T01:15:18.575Z,25.50
2018-03-02T01:17:46.101Z,24.60
2018-03-02T01:20:14.205Z,26.83
2018-03-02T01:22:41.796Z,21.43
2018-03-02T01:25:09.399Z,22.93
2018-03-02T01:27:37.547Z,30.10
2018-03-02T01:30:06.141Z,26.67
2018-03-02T01:42:18.710Z,23.33
2018-03-02T01:44:46.749Z,24.40
2018-03-02T01:47:15.669Z,29.80
2018-03-02T01:49:47.251Z,24.83
2018-03-02T01:52:14.787Z,25.93
2018-03-02T01:54:43.109Z,27.00
2018-03-02T01:57:10.685Z,25.07
2018-03-02T01:59:39.457Z,26.67
2018-03-02T02:02:07.693Z,25.17
2018-03-02T02:04:35.233Z,30.33
2018-03-02T02:07:02.768Z,25.50
2018-03-02T02:09:30.298Z,25.20
2018-03-02T02:11:58.851Z,30.83
2018-03-02T02:14:27.099Z,29.63
2018-03-02T02:16:59.134Z,30.13
2018-03-02T02:19:27.603Z,25.73
2018-03-02T02:21:55.134Z,26.57
2018-03-02T02:24:23.353Z,29.23
2018-03-02T02:26:52.023Z,31.70
2018-03-02T02:29:19.553Z,28.43
2018-03-02T02:31:47.797Z,27.83
2018-03-02T02:34:19.934Z,27.87
2018-03-02T02:36:48.453Z,25.77
2018-03-02T02:39:17.076Z,27.37
2018-03-02T02:41:44.627Z,33.30
2018-03-02T02:44:13.017Z,26.30
2018-03-02T02:46:40.565Z,32.97
2018-03-02T02:49:14.183Z,25.97
2018-03-02T02:51:42.547Z,31.27
2018-03-02T02:54:17.856Z,32.33
2018-03-02T02:56:46.896Z,32.27
2018-03-02T02:59:14.403Z,34.17
2018-03-02T03:11:31.971Z,24.50
2018-03-02T03:13:59.620Z,26.57
2018-03-02T03:16:27.155Z,32.03
2018-03-02T03:18:55.536Z,27.20
2018-03-02T03:21:23.096Z,30.70
2018-03-02T03:23:51.423Z,26.57
2018-03-02T03:26:23.558Z,28.67
2018-03-02T03:28:51.949Z,33.43
2018-03-02T03:31:19.584Z,24.70
2018-03-02T03:33:47.128Z,29.67
2018-03-02T03:36:14.654Z,29.43
2018-03-02T03:38:42.270Z,30.17
2018-03-02T03:41:13.785Z,29.67
2018-03-02T03:43:42.359Z,29.93
2018-03-02T03:46:10.642Z,30.37
2018-03-02T03:48:39.470Z,34.60
2018-03-02T03:51:07.809Z,30.17
2018-03-02T03:53:40.646Z,27.87
2018-03-02T03:56:13.224Z,29.97
2018-03-02T03:58:41.085Z,33.47
2018-03-02T04:01:09.283Z,27.07
2018-03-02T04:03:36.802Z,30.33
2018-03-02T04:06:07.525Z,29.07
2018-03-02T04:08:35.047Z,33.77
2018-03-02T04:11:03.237Z,33.17
2018-03-02T04:13:36.038Z,28.23
2018-03-02T04:25:52.660Z,27.30
2018-03-02T04:28:20.196Z,28.30
2018-03-02T04:30:47.716Z,31.80
2018-03-02T04:33:17.432Z,29.67
2018-03-02T04:35:46.477Z,30.73
2018-03-02T04:38:18.439Z,30.50
2018-03-02T04:40:46.853Z,33.30
2018-03-02T04:43:15.293Z,32.10
2018-03-02T04:45:43.257Z,32.07
2018-03-02T04:48:10.777Z,29.27
2018-03-02T04:50:40.122Z,31.17
2018-03-02T04:53:07.653Z,30.23
2018-03-02T04:55:41.383Z,35.00
2018-03-02T04:58:08.909Z,40.83
2018-03-02T05:00:37.796Z,28.33
2018-03-02T05:03:06.557Z,30.70
2018-03-02T05:05:34.083Z,33.60
2018-03-02T05:08:01.740Z,34.50
2018-03-02T05:10:29.256Z,39.80
2018-03-02T05:13:01.361Z,39.13
2018-03-02T05:15:28.894Z,34.50
2018-03-02T05:17:57.174Z,31.87
2018-03-02T05:20:25.467Z,33.20
2018-03-02T05:22:54.293Z,34.17
2018-03-02T05:25:21.871Z,33.67
2018-03-02T05:27:49.378Z,37.83
2018-03-02T05:30:17.765Z,34.20
2018-03-02T05:32:45.340Z,31.80
2018-03-02T05:35:13.433Z,33.47
2018-03-02T05:37:45.544Z,33.50
2018-03-02T05:40:13.074Z,33.03
2018-03-02T05:42:40.614Z,32.83
2018-03-02T05:45:11.620Z,37.83
2018-03-02T05:47:39.178Z,35.10
2018-03-02T05:50:06.704Z,29.67
2018-03-02T05:52:38.892Z,33.93
2018-03-02T05:55:07.268Z,31.83
2018-03-02T06:10:35.388Z,30.43
2018-03-02T06:13:03.001Z,37.43
2018-03-02T06:15:30.898Z,36.10
2018-03-02T06:18:02.425Z,36.70
2018-03-02T06:20:30.077Z,37.63
2018-03-02T06:22:57.647Z,33.30
2018-03-02T06:25:26.202Z,36.23
2018-03-02T06:27:54.942Z,33.67
2018-03-02T06:30:23.658Z,33.57
2018-03-02T06:32:51.185Z,35.30
2018-03-02T06:35:18.724Z,31.17
2018-03-02T06:50:47.500Z,29.90
2018-03-02T06:53:16.172Z,29.33
2018-03-02T06:55:49.239Z,31.80
2018-03-02T06:58:17.686Z,31.10
2018-03-02T07:00:49.977Z,28.93
2018-03-02T07:03:18.093Z,35.13
2018-03-02T07:05:47.079Z,33.17
2018-03-02T07:08:15.393Z,37.13
2018-03-02T07:10:43.648Z,36.20
2018-03-02T07:13:12.390Z,34.17
2018-03-02T07:15:41.218Z,31.60
2018-03-02T07:18:10.909Z,33.40
2018-03-02T07:20:40.451Z,37.57
2018-03-02T07:23:07.974Z,32.40
2018-03-02T07:25:37.530Z,34.00
2018-03-02T07:28:05.814Z,34.43
2018-03-02T07:30:34.440Z,39.77
2018-03-02T07:33:03.429Z,34.70
2018-03-02T07:35:31.037Z,30.37
2018-03-02T07:37:59.027Z,37.80
2018-03-02T07:40:27.150Z,32.50
2018-03-02T07:42:55.869Z,31.07
2018-03-02T07:45:24.063Z,33.03
2018-03-02T07:47:51.642Z,35.73
2018-03-02T07:50:19.273Z,35.70
2018-03-02T07:52:46.825Z,36.33
2018-03-02T07:55:15.353Z,32.13
2018-03-02T07:57:42.873Z,35.47
2018-03-02T08:00:10.446Z,33.83
2018-03-02T08:02:38.104Z,36.47
2018-03-02T08:05:06.294Z,36.57
2018-03-02T08:07:41.780Z,38.97
2018-03-02T08:10:10.121Z,35.90
2018-03-02T08:12:42.697Z,35.97
2018-03-02T08:15:10.254Z,33.77
2018-03-02T08:17:38.503Z,35.77
2018-03-02T08:20:06.037Z,36.33
2018-03-02T08:22:37.919Z,35.20
2018-03-02T08:25:05.472Z,37.70
2018-03-02T13:58:14.741Z,35.07
2018-03-02T14:03:39.893Z,38.30
2018-03-02T14:06:11.617Z,36.77
2018-03-02T14:08:39.896Z,37.40
2018-03-02T14:11:07.431Z,35.80
2018-03-02T14:13:39.078Z,36.13
2018-03-02T14:16:06.709Z,37.00
2018-03-02T14:18:34.243Z,37.50
2018-03-02T14:21:01.871Z,36.23
2018-03-02T14:23:29.406Z,34.23
2018-03-02T14:25:57.031Z,33.27
2018-03-02T14:28:28.469Z,35.70
2018-03-02T14:30:59.649Z,37.67
2018-03-02T14:33:29.868Z,34.30
2018-03-02T14:35:58.210Z,34.13
2018-03-02T14:38:25.754Z,35.20
2018-03-02T14:40:53.304Z,33.87
2018-03-02T14:43:20.833Z,37.53
2018-03-02T14:45:48.429Z,33.90
2018-03-02T14:48:16.491Z,29.33
2018-03-02T14:50:47.785Z,31.50
2018-03-02T14:53:15.519Z,34.13
2018-03-02T14:55:47.088Z,34.43
2018-03-02T14:58:15.667Z,33.47
2018-03-02T15:00:43.189Z,36.70
2018-03-02T15:03:11.041Z,35.77
2018-03-02T15:05:39.764Z,32.07
2018-03-02T15:08:07.558Z,30.63
2018-03-02T15:10:39.394Z,35.90
2018-03-02T15:13:06.911Z,32.13
2018-03-02T15:15:34.919Z,36.50
2018-03-02T15:18:02.468Z,35.57
2018-03-02T15:20:29.989Z,35.37
2018-03-02T15:23:02.136Z,34.53
2018-03-02T15:25:32.293Z,34.90
2018-03-02T15:28:00.295Z,35.73
2018-03-02T15:30:27.992Z,34.77
2018-03-02T15:32:56.170Z,37.20
2018-03-02T15:35:27.952Z,32.77
2018-03-02T15:38:00.139Z,35.63
2018-03-02T15:40:27.684Z,37.13
2018-03-02T15:42:56.227Z,35.83
2018-03-02T16:16:12.433Z,39.23
2018-03-02T16:18:40.305Z,39.70
2018-03-02T16:24:17.041Z,37.37
2018-03-02T16:26:44.631Z,35.50
2018-03-02T16:42:16.073Z,33.53
2018-03-02T16:44:43.977Z,36.87
2018-03-02T16:47:11.509Z,34.83
2018-03-02T16:49:39.620Z,31.83
2018-03-02T16:52:07.148Z,35.27
2018-03-02T16:54:34.680Z,35.37
2018-03-02T16:57:05.853Z,36.57
2018-03-02T16:59:33.381Z,35.00
2018-03-02T17:02:04.926Z,37.97
2018-03-02T17:04:33.300Z,41.83
2018-03-02T17:07:05.081Z,34.37
2018-03-02T17:09:32.641Z,36.73
2018-03-02T17:12:00.170Z,31.63
2018-03-02T17:14:28.819Z,39.07
2018-03-02T17:16:56.352Z,32.13
2018-03-02T17:19:23.910Z,37.37
2018-03-02T17:21:56.181Z,37.50
2018-03-02T17:24:25.448Z,33.57
2018-03-02T17:26:53.729Z,34.83
2018-03-02T17:29:22.018Z,37.70
2018-03-02T17:31:50.374Z,34.77
2018-03-02T17:34:18.669Z,32.23
2018-03-02T17:36:46.391Z,30.33
2018-03-02T17:39:13.961Z,35.10
2018-03-02T17:41:41.607Z,37.13
2018-03-02T17:44:09.219Z,34.10
2018-03-02T17:46:36.781Z,35.57
2018-03-02T17:49:04.327Z,30.10
2018-03-02T17:51:32.614Z,30.83
2018-03-02T17:54:00.290Z,32.97
2018-03-02T18:06:13.172Z,28.33
2018-03-02T18:08:40.726Z,30.17
2018-03-02T18:11:08.295Z,31.67
2018-03-02T18:13:35.822Z,31.67
2018-03-02T18:16:04.111Z,32.20
2018-03-02T18:18:32.416Z,29.67
2018-03-02T18:20:59.933Z,32.90
2018-03-02T18:23:28.977Z,28.00
2018-03-02T18:25:56.514Z,31.10
2018-03-02T18:28:24.054Z,26.27
2018-03-02T18:30:52.480Z,28.37
2018-03-02T18:33:20.378Z,28.70
2018-03-02T18:35:47.920Z,31.10
2018-03-02T18:38:15.455Z,32.67
2018-03-02T18:40:43.037Z,25.47
2018-03-02T18:43:10.583Z,30.27
2018-03-02T18:45:38.232Z,25.37
2018-03-02T18:48:05.772Z,30.60
2018-03-02T18:50:34.166Z,26.33
2018-03-02T18:53:01.700Z,28.83
2018-03-02T18:55:29.992Z,28.07
2018-03-02T18:57:57.577Z,23.43
2018-03-02T19:00:25.100Z,28.87
2018-03-02T19:02:53.389Z,32.07
2018-03-02T19:05:20.974Z,24.60
2018-03-02T19:07:48.522Z,27.20
2018-03-02T19:20:06.124Z,23.33
2018-03-02T19:22:33.693Z,27.17
2018-03-02T19:25:01.231Z,26.77
2018-03-02T19:27:28.828Z,30.73
2018-03-02T19:29:56.507Z,28.13
2018-03-02T19:32:24.958Z,26.50
2018-03-02T19:34:52.818Z,26.83
2018-03-02T19:37:20.386Z,24.57
2018-03-02T19:39:48.006Z,24.57
2018-03-02T19:42:16.414Z,25.73
2018-03-02T19:44:44.164Z,23.57
2018-03-02T19:47:11.843Z,27.13
2018-03-02T19:49:39.478Z,24.17
2018-03-02T19:52:07.040Z,25.70
2018-03-02T19:54:35.418Z,25.57
2018-03-02T19:57:03.025Z,24.43
2018-03-02T19:59:30.630Z,23.57
2018-03-02T20:01:58.970Z,24.10
2018-03-02T20:04:26.515Z,24.37
2018-03-02T20:06:54.061Z,24.87
2018-03-02T20:09:21.603Z,23.73
2018-03-02T20:11:49.184Z,26.60
2018-03-02T20:14:16.837Z,26.07
2018-03-02T20:16:44.406Z,26.63
2018-03-02T20:19:11.974Z,25.87
2018-03-02T20:21:39.512Z,22.53
2018-03-02T20:24:07.398Z,30.13
2018-03-02T20:26:34.996Z,28.00
2018-03-02T20:29:02.582Z,28.23
2018-03-02T20:31:30.912Z,29.63
2018-03-02T20:33:58.505Z,30.90
2018-03-02T20:36:26.060Z,24.47
2018-03-02T20:38:53.621Z,27.67
2018-03-02T20:41:21.190Z,26.03
2018-03-02T20:43:49.526Z,26.50
2018-03-02T20:46:17.051Z,29.90
2018-03-02T20:48:44.617Z,28.97
2018-03-02T20:51:12.169Z,28.17
2018-03-02T20:53:39.774Z,27.83
2018-03-02T20:56:07.294Z,26.10
2018-03-02T20:58:35.669Z,27.37
2018-03-02T21:01:03.352Z,31.00
2018-03-02T21:03:30.942Z,28.33
2018-03-02T21:05:58.566Z,27.77
2018-03-02T21:08:26.157Z,25.30
2018-03-02T21:10:53.788Z,30.37
2018-03-02T21:13:21.378Z,28.37
2018-03-02T21:15:48.948Z,27.07
2018-03-02T21:18:16.505Z,26.40
2018-03-02T21:20:44.059Z,27.90
2018-03-02T21:23:11.674Z,27.73
2018-03-02T21:25:40.022Z,27.33
2018-03-02T21:28:07.581Z,24.73
2018-03-02T21:30:35.150Z,27.13
2018-03-02T21:33:02.866Z,26.80
2018-03-02T21:35:30.417Z,25.20
2018-03-02T21:37:57.961Z,26.60
2018-03-02T21:40:26.278Z,29.67
2018-03-02T21:42:53.841Z,29.73
2018-03-02T21:45:21.386Z,26.73
2018-03-02T21:47:48.938Z,31.87
2018-03-02T21:50:16.506Z,26.83
2018-03-02T21:52:44.047Z,27.60
2018-03-02T21:55:11.584Z,25.70
2018-03-02T21:57:39.883Z,26.60
2018-03-02T22:00:07.398Z,25.93
2018-03-02T22:02:35.006Z,25.77
2018-03-02T22:05:02.535Z,27.80
2018-03-02T22:07:30.887Z,26.87
2018-03-02T22:09:58.421Z,29.03
2018-03-02T22:12:29.817Z,35.23
2018-03-02T22:14:57.376Z,28.43
2018-03-02T22:17:24.918Z,28.10
2018-03-02T22:19:52.449Z,27.10
2018-03-02T22:22:19.968Z,28.00
2018-03-02T22:24:48.305Z,28.93
2018-03-02T22:27:15.859Z,31.93
2018-03-02T22:29:43.394Z,30.70
2018-03-02T22:32:11.116Z,31.70
2018-03-02T22:34:38.661Z,32.47
2018-03-02T22:37:06.223Z,29.80
2018-03-02T22:39:34.204Z,27.93
2018-03-02T22:42:02.506Z,28.20
2018-03-02T22:44:31.012Z,28.20
2018-03-02T22:46:58.606Z,31.83
2018-03-02T22:49:26.219Z,27.23
2018-03-02T22:51:53.746Z,29.00
2018-03-02T22:54:21.368Z,31.87
2018-03-02T22:56:48.981Z,27.20
2018-03-02T22:59:17.296Z,35.07
2018-03-02T23:01:44.840Z,27.67
2018-03-02T23:04:12.407Z,33.10
2018-03-02T23:06:39.973Z,31.63
2018-03-02T23:09:07.519Z,30.77
2018-03-02T23:11:35.070Z,30.00
2018-03-02T23:14:03.360Z,27.83
2018-03-02T23:16:30.889Z,26.63
2018-03-02T23:18:59.218Z,32.47
2018-03-02T23:21:26.767Z,28.17
2018-03-02T23:23:54.349Z,27.97
2018-03-02T23:26:21.917Z,29.10
2018-03-02T23:28:49.577Z,28.33
2018-03-02T23:31:17.197Z,28.17
2018-03-02T23:33:44.744Z,25.73
2018-03-02T23:36:13.069Z,28.73
2018-03-02T23:38:40.614Z,32.80
2018-03-02T23:41:08.247Z,30.93
2018-03-02T23:43:36.539Z,25.63
2018-03-02T23:46:04.077Z,32.23
2018-03-02T23:48:32.351Z,31.70
2018-03-02T23:51:01.507Z,30.90
2018-03-02T23:53:29.311Z,32.80
2018-03-02T23:55:57.611Z,35.27
2018-03-02T23:58:25.162Z,30.23
